Houston, Texas
Traffic Map
Current Weather Conditions
Houston, Texas
Overcast
Overcast
72°
Feels Like: 72°
Wind Chill: 72° Ceiling: 1000
Heat Index: 72° Visibility: 5mi
Dew Point: 66° Wind: 12mph
Humidity: 83% Direction: 140° (SE)
Pressure: 29.88in Gusts: 20mph
Raw Report DataKMCJ 041515Z AUTO 14010G17KT 5SM OVC010 22/19 A2988 RMK AO1
Traffic Incident Summary
Active as of:
Severity:
Category:
InformationThere was an issue retrieving the traffic information for this location. Please try a different location or try again shortly.
Advertisements
Track Severe Weather on mobile